WARM SPRINGS (USACE) (WRS)

Elevation: 440' · RUSSIAN R basin · Operator: US Army Corps of Engineers

Provisional data, subject to change.
Query executed Sunday at 5:56:40   clock

Select a sensor type for a plot of data.
Note: Reservoir Flows are daily averages.

Earlier

Date RES ELE    STORAGE    RES CHG    TOC STO    ABV TOC    OUTFLOW    INFLOW    PPT INC    TEMP MN    TEMP MX    EVP PAN   
 FEET   AF   AF   AF   AF   CFS   CFS   INCHES   DEG F   DEG F   INCHES  
12/27/2014 428.81 190939 -- 245000 -- 95 188 0.00 0 13 0.03
12/28/2014 428.88 191095 -- 245000 -53905 95 176 0.00 2 14 0.03
12/29/2014 428.93 191207 112 245000 -53793 95 154 0.00 2 12 0.03
12/30/2014 428.95 191251 44 245000 -53749 95 121 0.00 1 12 0.05
12/31/2014 428.97 191296 45 -- -- -- -- -- -- -- --
01/01/2015 428.97 191296 0 245000 -53704 95 97 0.00 -3 13 0.03
01/02/2015 428.96 191274 -22 245000 -53726 95 86 0.00 -2 12 0.03
01/03/2015 428.95 191251 -23 245000 -53749 95 85 0.00 -0 13 0.03
01/04/2015 428.94 191229 -22 245000 -53771 95 86 0.00 1 15 0.03
01/05/2015 428.93 191207 -22 245000 -53793 95 86 0.00 2 16 0.03
01/06/2015 428.91 191162 -45 245000 -53838 92 71 0.00 3 18 0.03
01/07/2015 428.89 191117 -45 245000 -53883 90 70 0.00 4 18 0.04
01/08/2015 428.87 191073 -44 245000 -53927 90 70 0.00 4 16 0.03
01/09/2015 428.84 191006 -67 245000 -53994 89 58 0.00 5 20 0.04
01/10/2015 428.82 190961 -45 245000 -54039 89 69 0.00 5 17 0.03
01/11/2015 428.79 190894 -67 245000 -54106 89 58 0.00 4 17 0.04
01/12/2015 428.76 190827 -67 245000 -54173 88 58 0.00 9 20 0.04
01/13/2015 428.71 190716 -111 245000 -54284 88 35 0.00 5 18 0.04
01/14/2015 428.67 190627 -89 245000 -54373 89 47 0.00 2 16 0.04
01/15/2015 428.61 190493 -134 245000 -54507 92 27 0.00 4 14 0.03
01/16/2015 428.62 190515 22 245000 -54485 96 109 0.18 7 14 0.02
01/17/2015 428.57 190404 -111 245000 -54596 97 43 0.03 11 16 0.03
01/18/2015 428.54 190337 -67 245000 -54663 100 68 0.01 12 18 0.03
01/19/2015 428.49 190226 -111 245000 -54774 103 50 0.00 7 18 0.04
01/20/2015 428.44 190115 -111 245000 -54885 105 52 0.00 6 17 0.04
01/21/2015 428.36 189937 -178 245000 -55063 106 19 0.00 2 17 0.04
01/22/2015 428.31 189826 -111 245000 -55174 90 36 0.00 4 17 0.04
01/23/2015 428.29 189781 -45 245000 -55219 76 57 0.00 2 22 0.05
01/24/2015 428.24 189670 -111 245000 -55330 -- -- -- -- -- --
01/25/2015 -- -- -- -- -- -- -- -- -- -- --

Later | Latest

Warning! This data is preliminary and subject to revision.

Show WRS Map | Plot WRS Data | 1 Month WRS Data | Real-Time WRS Data | WRS Info